Latest Weather Observations for Kurnell

IDN60901

Issued at 6:11 am EDT Wednesday 13 November 2019 (issued every 10 minutes, with the page automatically refreshed every 10 minutes)

About weather observations | Map of Sydney area stations | Latest observations for Sydney area | Other Formats
Station Details ID: 066043 Name: KURNELL AWS Lat: -34.00 Lon: 151.21 Height: 4.0 m
Data from the previous 72 hours. | See also: Recent months at Kurnell
Date/Time
EDT
Temp
°C
App
Temp
°C
Dew
Point
°C
Rel
Hum
%
Delta-T
°C
Wind Press
QNH
hPa
Press
MSL
hPa
Rain since
9am
mm
Dir  Spd
km/h
Gust
km/h
Spd
kts
Gust
kts
13/06:00am - - - - - W 19 22 10 12 - - -
13/05:30am - - - - - W 24 28 13 15 - - -
13/05:00am - - - - - W 20 26 11 14 - - -
13/04:30am - - - - - W 17 20 9 11 - - -
13/04:00am - - - - - WNW 17 19 9 10 - - -
13/03:30am - - - - - W 13 17 7 9 - - -
13/03:00am - - - - - SSW 15 24 8 13 - - -
13/02:30am - - - - - S 17 28 9 15 - - -
13/02:00am - - - - - S 20 30 11 16 - - -
13/01:30am - - - - - S 28 37 15 20 - - -
13/01:00am - - - - - S 28 41 15 22 - - -
13/12:30am - - - - - S 33 44 18 24 - - -
13/12:00am - - - - - S 32 48 17 26 - - -
 
Date/Time
EDT
Temp
°C
App
Temp
°C
Dew
Point
°C
Rel
Hum
%
Delta-T
°C
Wind Press
QNH
hPa
Press
MSL
hPa
Rain since
9am
mm
Dir  Spd
km/h
Gust
km/h
Spd
kts
Gust
kts
12/11:30pm - - - - - S 33 44 18 24 - - -
12/11:00pm - - - - - S 35 46 19 25 - - -
12/10:30pm - - - - - S 37 52 20 28 - - -
12/10:13pm - - - - - S 39 57 21 31 - - -
12/10:00pm - - - - - S 43 54 23 29 - - -
12/09:30pm - - - - - S 39 57 21 31 - - -
12/09:00pm - - - - - S 41 56 22 30 - - -
12/08:32pm - - - - - S 44 65 24 35 - - -
12/08:30pm - - - - - S 43 59 23 32 - - -
12/08:00pm - - - - - SSW 46 63 25 34 - - -
12/07:32pm - - - - - SSW 48 67 26 36 - - -
12/07:30pm - - - - - SSW 46 59 25 32 - - -
12/07:00pm - - - - - SSW 37 59 20 32 - - -
12/06:57pm - - - - - SW 35 59 19 32 - - -
12/06:56pm - - - - - WSW 35 59 19 32 - - -
12/06:53pm - - - - - WSW 39 57 21 31 - - -
12/06:37pm - - - - - W 46 67 25 36 - - -
12/06:30pm - - - - - W 44 61 24 33 - - -
12/06:19pm - - - - - W 39 57 21 31 - - -
12/06:00pm - - - - - WNW 44 57 24 31 - - -
12/05:33pm - - - - - WNW 48 67 26 36 - - -
12/05:30pm - - - - - WNW 50 67 27 36 - - -
12/05:23pm - - - - - WNW 44 63 24 34 - - -
12/05:00pm - - - - - WNW 48 59 26 32 - - -
12/04:36pm - - - - - WNW 43 63 23 34 - - -
12/04:30pm - - - - - WNW 39 50 21 27 - - -
12/04:21pm - - - - - NW 41 59 22 32 - - -
12/04:00pm - - - - - NW 43 57 23 31 - - -
12/03:30pm - - - - - WNW 33 43 18 23 - - -
12/03:02pm - - - - - NW 37 56 20 30 - - -
12/03:00pm - - - - - NW 37 50 20 27 - - -
12/02:30pm - - - - - NW 39 56 21 30 - - -
12/02:27pm - - - - - NW 35 54 19 29 - - -
12/02:00pm - - - - - NW 44 57 24 31 - - -
12/01:47pm - - - - - NW 37 70 20 38 - - -
12/01:30pm - - - - - NW 32 52 17 28 - - -
12/01:01pm - - - - - WNW 35 54 19 29 - - -
12/01:00pm - - - - - WNW 35 50 19 27 - - -
12/12:30pm - - - - - WNW 41 48 22 26 - - -
12/12:00pm - - - - - NW 26 32 14 17 - - -
12/11:30am - - - - - NNW 32 39 17 21 - - -
12/11:00am - - - - - NNW 24 30 13 16 - - -
12/10:30am - - - - - NNW 28 39 15 21 - - -
12/10:00am - - - - - N 20 24 11 13 - - -
12/09:30am - - - - - N 24 32 13 17 - - -
12/09:00am - - - - - NNW 11 20 6 11 - - -
12/08:30am - - - - - CALM 0 9 0 5 - - -
12/08:00am - - - - - NW 11 13 6 7 - - -
12/07:30am - - - - - NW 11 13 6 7 - - -
12/07:00am - - - - - NNW 13 17 7 9 - - -
12/06:30am - - - - - WNW 13 15 7 8 - - -
12/06:00am - - - - - WNW 15 17 8 9 - - -
12/05:30am - - - - - WNW 11 13 6 7 - - -
12/05:00am - - - - - NW 9 11 5 6 - - -
12/04:30am - - - - - NNW 9 11 5 6 - - -
12/04:00am - - - - - N 7 7 4 4 - - -
12/03:30am - - - - - N 7 7 4 4 - - -
12/03:00am - - - - - NNE 9 9 5 5 - - -
12/02:30am - - - - - NNE 11 11 6 6 - - -
12/02:00am - - - - - NNE 11 13 6 7 - - -
12/01:30am - - - - - N 9 9 5 5 - - -
12/01:00am - - - - - NNE 13 13 7 7 - - -
12/12:30am - - - - - NNE 13 13 7 7 - - -
12/12:00am - - - - - N 9 11 5 6 - - -
 
Date/Time
EDT
Temp
°C
App
Temp
°C
Dew
Point
°C
Rel
Hum
%
Delta-T
°C
Wind Press
QNH
hPa
Press
MSL
hPa
Rain since
9am
mm
Dir  Spd
km/h
Gust
km/h
Spd
kts
Gust
kts
11/11:30pm - - - - - N 13 17 7 9 - - -
11/11:00pm - - - - - N 15 20 8 11 - - -
11/10:30pm - - - - - N 19 26 10 14 - - -
11/10:00pm - - - - - NNE 24 33 13 18 - - -
11/09:30pm - - - - - NNE 39 46 21 25 - - -
11/09:00pm - - - - - NNE 44 56 24 30 - - -
11/08:30pm - - - - - NNE 46 54 25 29 - - -
11/08:00pm - - - - - NNE 46 56 25 30 - - -
11/07:30pm - - - - - NNE 46 61 25 33 - - -
11/07:00pm - - - - - NE 52 61 28 33 - - -
11/06:30pm - - - - - NE 54 65 29 35 - - -
11/06:00pm - - - - - NE 48 59 26 32 - - -
11/05:30pm - - - - - NE 48 59 26 32 - - -
11/05:00pm - - - - - NE 46 59 25 32 - - -
11/04:30pm - - - - - NE 44 56 24 30 - - -
11/04:00pm - - - - - NE 44 52 24 28 - - -
11/03:30pm - - - - - NE 41 50 22 27 - - -
11/03:00pm - - - - - NE 44 50 24 27 - - -
11/02:30pm - - - - - NE 39 46 21 25 - - -
11/02:00pm - - - - - NE 41 48 22 26 - - -
11/01:30pm - - - - - NE 35 41 19 22 - - -
11/01:00pm - - - - - NE 33 37 18 20 - - -
11/12:30pm - - - - - ENE 32 35 17 19 - - -
11/12:00pm - - - - - NE 30 35 16 19 - - -
11/11:30am - - - - - ENE 24 30 13 16 - - -
11/11:00am - - - - - NNE 11 13 6 7 - - -
11/10:30am - - - - - N 11 15 6 8 - - -
11/10:00am - - - - - N 13 19 7 10 - - -
11/09:30am - - - - - NNW 19 24 10 13 - - -
11/09:00am - - - - - N 19 24 10 13 - - -
11/08:30am - - - - - N 19 26 10 14 - - -
11/08:00am - - - - - NW 15 20 8 11 - - -
11/07:30am - - - - - NNW 15 17 8 9 - - -
11/07:00am - - - - - NNW 13 17 7 9 - - -
11/06:30am - - - - - NNW 13 17 7 9 - - -
11/06:00am - - - - - NNW 6 7 3 4 - - -
11/05:30am - - - - - CALM 0 0 0 0 - - -
11/05:00am - - - - - CALM 0 0 0 0 - - -
11/04:30am - - - - - CALM 0 0 0 0 - - -
11/04:00am - - - - - CALM 0 0 0 0 - - -
11/03:30am - - - - - CALM 0 7 0 4 - - -
11/03:00am - - - - - NNW 11 11 6 6 - - -
11/02:30am - - - - - SW 4 6 2 3 - - -
11/02:00am - - - - - WSW 6 9 3 5 - - -
11/01:30am - - - - - SW 7 9 4 5 - - -
11/01:00am - - - - - S 2 7 1 4 - - -
11/12:30am - - - - - CALM 0 0 0 0 - - -
11/12:00am - - - - - CALM 0 0 0 0 - - -
 
Date/Time
EDT
Temp
°C
App
Temp
°C
Dew
Point
°C
Rel
Hum
%
Delta-T
°C
Wind Press
QNH
hPa
Press
MSL
hPa
Rain since
9am
mm
Dir  Spd
km/h
Gust
km/h
Spd
kts
Gust
kts
10/11:30pm - - - - - CALM 0 0 0 0 - - -
10/11:00pm - - - - - CALM 0 0 0 0 - - -
10/10:30pm - - - - - S 7 9 4 5 - - -
10/10:00pm - - - - - SSE 9 11 5 6 - - -
10/09:30pm - - - - - SSE 9 13 5 7 - - -
10/09:00pm - - - - - SSE 11 17 6 9 - - -
10/08:30pm - - - - - SSE 15 19 8 10 - - -
10/08:00pm - - - - - SSE 17 22 9 12 - - -
10/07:30pm - - - - - SSE 19 26 10 14 - - -
10/07:00pm - - - - - SSE 19 30 10 16 - - -
10/06:30pm - - - - - SSE 20 30 11 16 - - -
10/06:00pm - - - - - SSE 26 32 14 17 - - -
10/05:30pm - - - - - SSE 28 33 15 18 - - -
10/05:00pm - - - - - SSE 24 30 13 16 - - -
10/04:30pm - - - - - SE 26 33 14 18 - - -
10/04:00pm - - - - - SE 26 32 14 17 - - -
10/03:30pm - - - - - ESE 24 33 13 18 - - -
10/03:00pm - - - - - SE 22 32 12 17 - - -
10/02:30pm - - - - - SE 22 30 12 16 - - -
10/02:00pm - - - - - SE 20 30 11 16 - - -
10/01:30pm - - - - - SE 22 28 12 15 - - -
10/01:00pm - - - - - SSE 22 30 12 16 - - -
10/12:30pm - - - - - SSE 22 32 12 17 - - -
10/12:00pm - - - - - SSE 22 30 12 16 - - -
10/11:30am - - - - - S 24 33 13 18 - - -
10/11:00am - - - - - SSW 17 26 9 14 - - -
10/10:30am - - - - - WSW 19 28 10 15 - - -
10/10:00am - - - - - W 22 30 12 16 - - -
10/09:30am - - - - - W 28 33 15 18 - - -
10/09:00am - - - - - W 32 43 17 23 - - -
10/08:30am - - - - - W 32 41 17 22 - - -
10/08:00am - - - - - W 30 35 16 19 - - -
10/07:30am - - - - - W 28 33 15 18 - - -
10/07:00am - - - - - W 28 33 15 18 - - -
10/06:30am - - - - - W 20 26 11 14 - - -

Latest Capital City Observations: Canberra | Sydney | Melbourne | Brisbane | Adelaide | Perth | Hobart | Darwin

Other formats

Comma delimited format used in spreadsheet applications
http://www.bom.gov.au/fwo/IDN60901/IDN60901.95756.axf

JavaScript Object Notation format (JSON) in row-major order
http://www.bom.gov.au/fwo/IDN60901/IDN60901.95756.json

Data quality

Most of these data are generated automatically and are frequently updated. Quality checks on data are not normally performed. It is possible for incorrect values to appear. Refer to information at About Latest Weather Observations and please check the disclaimer before using these data.